EST,Max TemperatureF,Mean TemperatureF,Min TemperatureF,Max Dew PointF,MeanDew PointF,Min DewpointF,Max Humidity, Mean Humidity, Min Humidity, Max Sea Level PressureIn, Mean Sea Level PressureIn, Min Sea Level PressureIn, Max VisibilityMiles, Mean VisibilityMiles, Min VisibilityMiles, Max Wind SpeedMPH, Mean Wind SpeedMPH, Max Gust SpeedMPH,PrecipitationIn, CloudCover, Events, WindDirDegrees
2013-1-1,48,46,44,41,36,27,86,67,43,30.05,30.00,29.91,10,9,3,13,7,,0.18,6,Rain,251
2013-1-2,44,40,36,39,34,27,87,77,61,30.21,30.08,29.99,10,7,4,8,5,,0.20,6,Rain,35
2013-1-3,41,34,28,26,23,21,79,61,47,30.26,30.22,30.18,10,10,6,6,3,,0.00,3,,25
2013-1-4,48,37,26,27,23,16,81,59,37,30.26,30.21,30.14,10,8,2,10,4,,0.00,0,,255
2013-1-5,46,38,30,31,25,20,76,58,42,30.39,30.31,30.22,10,10,10,9,6,,0.00,0,,123
2013-1-6,51,44,37,35,34,32,87,68,52,30.23,30.14,30.05,10,10,7,8,5,,0.04,5,Rain,224
2013-1-7,52,41,30,33,28,26,86,65,38,30.46,30.37,30.14,10,8,0,13,4,18,0.00,1,,21
2013-1-8,55,42,28,38,29,23,87,79,44,30.49,30.43,30.39,10,5,0,6,0,,0.00,1,Fog,109
2013-1-9,68,54,39,48,42,35,89,68,47,30.42,30.37,30.30,10,9,2,12,3,,0.00,1,,233
2013-1-10,57,47,35,47,35,26,93,66,30,30.58,30.49,30.38,10,7,0,12,3,,0.00,0,Fog,48
2013-1-11,59,46,33,54,46,19,89,81,52,30.50,30.25,30.12,10,6,0,9,4,,0.02,6,Fog-Rain,194
2013-1-12,57,54,50,52,49,45,89,85,80,30.17,30.14,30.11,8,2,0,9,5,,0.01,8,Fog,66
2013-1-13,66,58,50,57,52,46,90,84,70,30.15,30.11,30.05,10,4,0,12,5,,0.00,4,Fog,179
2013-1-14,66,56,46,61,52,42,88,82,70,30.23,30.16,30.07,10,4,1,16,8,23,1.42,7,Rain,38
2013-1-15,48,46,44,45,41,39,87,83,76,30.27,30.23,30.10,10,3,0,14,8,22,0.87,8,Rain,44
2013-1-16,48,45,42,45,40,36,87,83,79,30.09,30.03,29.96,10,4,1,9,4,,0.38,8,Rain,327
2013-1-17,48,42,35,45,40,30,87,83,76,30.12,30.05,29.98,10,3,1,15,7,54,1.33,8,Rain-Snow,45
2013-1-18,44,37,28,32,24,-14,87,65,10,30.55,30.36,30.07,10,8,1,14,8,22,0.06,1,Rain-Snow,341
2013-1-19,53,40,28,30,26,20,82,57,37,30.51,30.34,30.12,10,10,9,14,5,,0.00,0,,212
2013-1-20,62,52,41,33,31,21,61,48,30,30.10,30.00,29.90,10,10,10,18,11,28,0.00,0,,245
2013-1-21,57,44,30,34,28,20,79,53,35,30.09,29.97,29.80,10,10,10,15,4,26,0.00,1,,175
2013-1-22,39,32,24,18,6,-3,56,36,21,30.27,30.15,29.93,10,10,10,15,8,23,0.00,0,,335
2013-1-23,35,27,19,12,4,0,52,36,23,30.38,30.27,30.12,10,10,10,14,6,,0.00,3,,330
2013-1-24,34,29,21,22,11,0,72,50,29,30.54,30.29,29.98,10,9,1,17,9,29,0.00,5,Snow,354
2013-1-25,30,24,19,22,15,4,81,65,37,30.53,30.27,30.10,10,6,0,12,5,16,0.08,5,Snow,239
2013-1-26,36,28,19,25,21,16,85,72,59,30.44,30.23,30.09,10,8,3,7,4,,0.00,4,,277
2013-1-27,41,34,28,25,20,18,72,58,41,30.61,30.54,30.45,10,9,7,8,4,,0.00,2,,51
2013-1-28,52,41,30,43,33,20,79,67,52,30.53,30.33,30.15,10,8,2,16,7,22,0.06,5,Rain,216
2013-1-29,72,60,48,51,47,42,80,65,48,30.17,30.11,30.08,10,8,4,13,9,,0.00,0,,220
2013-1-30,75,68,61,59,57,51,81,67,52,30.05,29.80,29.44,10,9,6,25,14,40,0.00,5,,198
2013-1-31,72,56,39,61,34,16,82,50,27,29.99,29.64,29.29,10,9,2,32,23,50,0.36,3,Rain,255